Time;durP1;ratioP1;P1;durP2;ratioP2;P2;SDS_P1;SDS_P2;PMS_P1;PMS_P2;Temp;Humidity;BMP_temperature;BMP_pressure;BME280_temperature;BME280_humidity;BME280_pressure;Samples;Min_cycle;Max_cycle;Signal;HPM_P1;HPM_P2
2022/01/30 00:01:29;;;;;;;22.60;5.80;;;7.90;99.90;;;;;;5005633;28;20215;-78
2022/01/30 00:03:56;;;;;;;23.07;6.13;;;7.90;99.90;;;;;;4987579;28;20207;-80
2022/01/30 00:06:23;;;;;;;32.70;7.50;;;7.90;99.90;;;;;;4989011;28;20194;-80
2022/01/30 00:08:49;;;;;;;30.20;6.07;;;7.80;99.90;;;;;;5003405;28;20212;-78
2022/01/30 00:11:20;;;;;;;30.77;6.23;;;7.90;99.90;;;;;;4988513;28;20584;-80
2022/01/30 00:13:46;;;;;;;37.67;5.83;;;7.80;99.90;;;;;;5003151;28;20875;-80
2022/01/30 00:16:14;;;;;;;29.60;5.60;;;7.80;99.90;;;;;;4988568;28;20195;-78
2022/01/30 00:21:12;;;;;;;30.70;5.40;;;7.80;99.90;;;;;;5003810;28;20195;-78
2022/01/30 00:23:46;;;;;;;36.27;5.90;;;7.80;99.90;;;;;;5000463;28;20207;-79
2022/01/30 00:26:14;;;;;;;28.33;5.37;;;7.80;99.90;;;;;;5003796;28;20190;-79
2022/01/30 00:28:40;;;;;;;34.90;5.23;;;7.80;99.90;;;;;;4988296;28;20772;-79
2022/01/30 00:31:06;;;;;;;26.97;6.40;;;7.70;99.90;;;;;;5005835;28;20311;-80
2022/01/30 00:33:32;;;;;;;22.20;5.73;;;7.70;99.90;;;;;;5002862;28;20734;-79
2022/01/30 00:35:57;;;;;;;25.00;5.33;;;7.70;99.90;;;;;;4987606;28;20183;-79
2022/01/30 00:38:23;;;;;;;20.30;5.03;;;7.70;99.90;;;;;;4986777;28;20226;-78
2022/01/30 00:40:51;;;;;;;34.30;5.80;;;7.70;99.90;;;;;;4988564;28;20188;-78
2022/01/30 00:43:18;;;;;;;23.00;5.97;;;7.60;99.90;;;;;;5006105;28;20219;-77
2022/01/30 00:45:45;;;;;;;29.23;5.60;;;7.60;99.90;;;;;;4989113;28;20192;-79
2022/01/30 00:48:11;;;;;;;27.80;5.60;;;7.60;99.90;;;;;;5003465;28;20249;-78
2022/01/30 00:50:37;;;;;;;32.93;6.27;;;7.60;99.90;;;;;;5003691;28;20188;-79
2022/01/30 00:53:03;;;;;;;23.83;6.57;;;7.60;99.90;;;;;;4978320;28;20546;-80
2022/01/30 00:55:30;;;;;;;22.37;5.87;;;7.50;99.90;;;;;;5002586;28;20239;-79
2022/01/30 00:57:58;;;;;;;23.77;5.33;;;7.50;99.90;;;;;;5002987;28;20210;-78
2022/01/30 01:00:25;;;;;;;29.80;5.63;;;7.50;99.90;;;;;;5003746;28;20203;-79
2022/01/30 01:02:53;;;;;;;23.87;4.90;;;7.50;99.90;;;;;;5003445;28;20616;-79
2022/01/30 01:05:19;;;;;;;29.47;6.27;;;7.50;99.90;;;;;;4989096;28;20227;-79
2022/01/30 01:07:48;;;;;;;29.77;6.30;;;7.50;99.90;;;;;;4990427;28;20203;-78
2022/01/30 01:10:30;;;;;;;28.10;6.30;;;7.40;99.90;;;;;;5000173;28;20243;-79
2022/01/30 01:13:12;;;;;;;28.50;5.93;;;7.40;99.90;;;;;;5008124;28;20215;-79
2022/01/30 01:23:47;;;;;;;39.30;6.23;;;7.40;99.90;;;;;;5010505;28;20188;-79
2022/01/30 01:26:14;;;;;;;31.03;6.37;;;7.40;99.90;;;;;;5026421;28;20720;-80
2022/01/30 01:28:39;;;;;;;27.23;6.23;;;7.40;99.90;;;;;;4993100;28;20216;-79
2022/01/30 01:31:05;;;;;;;28.73;6.13;;;7.40;99.90;;;;;;5010388;28;20278;-80
2022/01/30 01:36:16;;;;;;;34.40;6.13;;;7.40;99.90;;;;;;5010743;28;20191;-80
2022/01/30 01:38:42;;;;;;;33.97;8.63;;;7.40;99.90;;;;;;4990722;28;20192;-79
2022/01/30 01:41:08;;;;;;;28.90;6.03;;;7.40;99.90;;;;;;4972959;28;20676;-78
2022/01/30 01:43:35;;;;;;;25.13;6.23;;;7.40;99.90;;;;;;4989464;28;20212;-78
2022/01/30 01:46:02;;;;;;;35.13;6.40;;;7.40;99.90;;;;;;5005497;28;20199;-79
2022/01/30 01:48:33;;;;;;;31.47;7.03;;;7.40;99.90;;;;;;5004655;28;20203;-79
2022/01/30 01:51:13;;;;;;;22.17;6.53;;;7.30;99.90;;;;;;5004542;28;20183;-79
2022/01/30 01:53:39;;;;;;;30.97;6.10;;;7.30;99.90;;;;;;4990846;28;20195;-79
2022/01/30 01:56:05;;;;;;;29.67;5.80;;;7.30;99.90;;;;;;4988453;28;20246;-77
2022/01/30 01:58:30;;;;;;;21.43;6.07;;;7.20;99.90;;;;;;4988100;28;20207;-78
2022/01/30 02:00:59;;;;;;;28.80;6.67;;;7.30;99.90;;;;;;5005475;28;20211;-78
2022/01/30 02:03:25;;;;;;;32.20;6.83;;;7.20;99.90;;;;;;4973840;28;20188;-78
2022/01/30 02:05:56;;;;;;;21.73;4.97;;;7.30;99.90;;;;;;5007170;28;20204;-79
2022/01/30 02:13:58;;;;;;;23.40;5.50;;;7.20;99.90;;;;;;4987185;28;20216;-78
2022/01/30 02:24:56;;;;;;;26.20;5.70;;;7.20;99.90;;;;;;5006296;28;20203;-79
2022/01/30 02:27:25;;;;;;;28.03;5.50;;;7.20;99.90;;;;;;5009978;28;20289;-77
2022/01/30 02:29:52;;;;;;;20.10;4.53;;;7.20;99.90;;;;;;4984896;28;20208;-77
2022/01/30 02:32:18;;;;;;;24.17;4.77;;;7.20;99.90;;;;;;5006138;28;20179;-78
2022/01/30 02:34:45;;;;;;;21.90;5.10;;;7.20;99.90;;;;;;5008419;28;20235;-78
2022/01/30 02:37:14;;;;;;;26.23;5.03;;;7.20;99.90;;;;;;5022861;28;20226;-78
2022/01/30 02:39:40;;;;;;;25.77;4.93;;;7.20;99.90;;;;;;4991256;28;20287;-78
2022/01/30 02:42:06;;;;;;;23.07;5.13;;;7.20;99.90;;;;;;5007690;28;20223;-77
2022/01/30 02:44:41;;;;;;;20.97;5.17;;;7.20;99.90;;;;;;4991619;28;20752;-79
2022/01/30 02:47:10;;;;;;;24.83;5.50;;;7.20;99.90;;;;;;4991711;28;20219;-77
2022/01/30 02:50:07;;;;;;;19.50;4.20;;;7.20;99.90;;;;;;5001452;28;20220;-79
2022/01/30 02:52:30;;;;;;;23.90;3.80;;;7.20;99.90;;;;;;5007157;28;20196;-79
2022/01/30 02:54:56;;;;;;;21.13;4.50;;;7.20;99.90;;;;;;5005408;28;20226;-78
2022/01/30 02:57:22;;;;;;;22.87;4.80;;;7.20;99.90;;;;;;4990231;28;20207;-78
2022/01/30 02:59:48;;;;;;;26.77;3.83;;;7.20;99.90;;;;;;5008274;28;20207;-78
2022/01/30 03:02:13;;;;;;;28.17;4.00;;;7.20;99.90;;;;;;4990538;28;20267;-78
2022/01/30 03:04:40;;;;;;;21.77;5.37;;;7.20;99.90;;;;;;4990032;28;20187;-78
2022/01/30 03:07:06;;;;;;;27.77;4.00;;;7.20;99.90;;;;;;4991375;28;20184;-78
2022/01/30 03:09:31;;;;;;;16.43;3.07;;;7.20;99.90;;;;;;4990159;28;20222;-79
2022/01/30 03:11:57;;;;;;;24.53;4.80;;;7.30;99.90;;;;;;4991458;28;20567;-78
2022/01/30 03:14:23;;;;;;;19.60;3.40;;;7.30;99.90;;;;;;4991347;28;20187;-78
2022/01/30 03:16:48;;;;;;;26.67;4.10;;;7.30;99.90;;;;;;4989615;28;20187;-78
2022/01/30 03:19:14;;;;;;;18.30;3.80;;;7.30;99.90;;;;;;5007514;28;20195;-77
2022/01/30 03:21:39;;;;;;;22.67;4.93;;;7.20;99.90;;;;;;4990376;28;20197;-78
2022/01/30 03:24:05;;;;;;;28.90;3.50;;;7.20;99.90;;;;;;5004985;28;20201;-79
2022/01/30 03:26:37;;;;;;;24.07;4.50;;;7.20;99.90;;;;;;5007151;28;20198;-78
2022/01/30 03:29:06;;;;;;;20.73;4.10;;;7.20;99.90;;;;;;5003977;28;20219;-79
2022/01/30 03:31:37;;;;;;;17.47;3.30;;;7.30;99.90;;;;;;5015849;28;20220;-80
2022/01/30 03:34:06;;;;;;;25.07;3.50;;;7.40;99.90;;;;;;5004422;28;20183;-79
2022/01/30 03:36:31;;;;;;;17.37;3.00;;;7.40;99.90;;;;;;5022759;28;20207;-79
2022/01/30 03:38:58;;;;;;;22.63;3.77;;;7.40;99.90;;;;;;4987804;28;20225;-80
2022/01/30 03:41:25;;;;;;;14.83;3.00;;;7.40;99.90;;;;;;5003536;28;20220;-78
2022/01/30 03:43:51;;;;;;;19.50;3.33;;;7.50;99.90;;;;;;5003493;28;20239;-78
2022/01/30 03:46:19;;;;;;;13.17;2.63;;;7.50;99.90;;;;;;5006099;28;20215;-79
2022/01/30 03:48:45;;;;;;;13.77;2.67;;;7.50;99.90;;;;;;5005154;28;20203;-79
2022/01/30 03:51:10;;;;;;;12.77;2.57;;;7.40;99.90;;;;;;5006845;28;20448;-80
2022/01/30 03:53:36;;;;;;;18.33;2.97;;;7.40;99.90;;;;;;5006725;28;20677;-80
2022/01/30 03:56:03;;;;;;;15.27;2.63;;;7.40;99.90;;;;;;4987532;28;20736;-80
2022/01/30 03:58:29;;;;;;;18.93;3.03;;;7.40;99.90;;;;;;5005443;28;20219;-80
2022/01/30 04:00:54;;;;;;;23.93;3.57;;;7.40;99.90;;;;;;4988955;28;20580;-79
2022/01/30 04:03:20;;;;;;;18.40;3.13;;;7.40;99.90;;;;;;5005391;28;20211;-78
2022/01/30 04:05:46;;;;;;;18.23;2.77;;;7.40;99.90;;;;;;5004729;28;20246;-79
2022/01/30 04:08:12;;;;;;;11.60;2.90;;;7.40;99.90;;;;;;5005576;28;20199;-80
2022/01/30 04:10:38;;;;;;;24.00;3.60;;;7.40;99.90;;;;;;5005713;28;20195;-79
2022/01/30 04:13:04;;;;;;;16.07;3.03;;;7.40;99.90;;;;;;5007143;28;20267;-79
2022/01/30 04:15:30;;;;;;;12.67;2.90;;;7.40;99.90;;;;;;5006191;28;20630;-79
2022/01/30 04:17:56;;;;;;;20.07;3.77;;;7.40;99.90;;;;;;4989054;28;20199;-78
2022/01/30 04:20:21;;;;;;;20.57;2.93;;;7.40;99.90;;;;;;5006122;28;20203;-80
2022/01/30 04:22:47;;;;;;;17.63;3.30;;;7.50;99.90;;;;;;5005205;28;20195;-79
2022/01/30 04:25:13;;;;;;;18.47;3.20;;;7.50;99.90;;;;;;5003801;28;20196;-79
2022/01/30 04:27:39;;;;;;;15.67;2.87;;;7.60;99.90;;;;;;5005216;28;20298;-79
2022/01/30 04:30:05;;;;;;;14.93;3.03;;;7.60;99.90;;;;;;5001574;28;20212;-78
2022/01/30 04:32:33;;;;;;;17.77;3.50;;;7.60;99.90;;;;;;5005242;28;20199;-78
2022/01/30 04:35:08;;;;;;;10.73;2.70;;;7.60;99.90;;;;;;5007239;28;20275;-79
2022/01/30 04:37:53;;;;;;;11.63;2.47;;;7.60;99.90;;;;;;4990934;28;20192;-78
2022/01/30 04:54:07;;;;;;;18.30;2.93;;;7.10;99.90;;;;;;4981845;28;20199;-79
2022/01/30 05:01:52;;;;;;;12.77;2.93;;;7.00;99.90;;;;;;5010325;28;20757;-80
2022/01/30 05:04:41;;;;;;;14.47;2.60;;;7.00;99.90;;;;;;5008625;28;20186;-80
2022/01/30 05:09:33;;;;;;;16.33;3.27;;;6.90;99.90;;;;;;4992127;28;20223;-78
2022/01/30 05:11:59;;;;;;;16.83;3.07;;;6.90;99.90;;;;;;4992400;28;20191;-78
2022/01/30 05:14:31;;;;;;;20.87;2.90;;;6.90;99.90;;;;;;5006736;28;20202;-79
2022/01/30 05:16:57;;;;;;;22.20;2.80;;;6.90;99.90;;;;;;5006717;28;20183;-80
2022/01/30 05:19:23;;;;;;;12.03;2.93;;;6.80;99.90;;;;;;4986532;28;20218;-80
2022/01/30 05:21:49;;;;;;;22.70;3.33;;;6.80;99.90;;;;;;5007341;28;21109;-79
2022/01/30 05:24:15;;;;;;;12.47;3.57;;;6.80;99.90;;;;;;5007381;28;20202;-79
2022/01/30 05:26:43;;;;;;;18.30;3.37;;;6.80;99.90;;;;;;5006120;28;20703;-79
2022/01/30 05:29:09;;;;;;;19.53;3.17;;;6.80;99.90;;;;;;5010071;28;20565;-79
2022/01/30 05:31:35;;;;;;;13.87;2.73;;;6.80;99.90;;;;;;5008840;28;20270;-78
2022/01/30 05:34:01;;;;;;;26.57;2.97;;;6.80;99.90;;;;;;4991602;28;20215;-79
2022/01/30 05:36:28;;;;;;;19.70;2.77;;;6.80;99.90;;;;;;5008663;28;20184;-79
2022/01/30 05:38:54;;;;;;;17.70;2.87;;;6.80;99.90;;;;;;5006936;28;21074;-78
2022/01/30 05:41:21;;;;;;;19.27;2.73;;;6.80;99.90;;;;;;5008371;28;20685;-79
2022/01/30 05:43:50;;;;;;;17.30;2.70;;;6.80;99.90;;;;;;5006785;28;20215;-80
2022/01/30 05:46:29;;;;;;;19.30;3.13;;;6.80;99.90;;;;;;5007249;28;20198;-78
2022/01/30 05:48:55;;;;;;;17.03;2.80;;;6.80;99.90;;;;;;4992267;28;20215;-80
2022/01/30 05:51:22;;;;;;;19.97;2.80;;;6.80;99.90;;;;;;4983960;28;20234;-80
2022/01/30 05:53:47;;;;;;;17.83;3.53;;;6.80;99.90;;;;;;5008280;28;20238;-79
2022/01/30 05:56:13;;;;;;;22.97;2.83;;;6.80;99.90;;;;;;4990733;28;20231;-80
2022/01/30 05:58:39;;;;;;;18.60;2.70;;;6.70;99.90;;;;;;5006814;28;20215;-80
2022/01/30 06:01:05;;;;;;;18.00;3.00;;;6.80;99.90;;;;;;5006542;28;20195;-80
2022/01/30 06:03:31;;;;;;;16.40;3.33;;;6.80;99.90;;;;;;5007667;28;20206;-79
2022/01/30 06:05:57;;;;;;;17.83;3.23;;;6.90;99.90;;;;;;5007040;28;20200;-79
2022/01/30 06:08:45;;;;;;;21.87;4.43;;;6.80;99.90;;;;;;4990412;28;20210;-79
2022/01/30 06:11:11;;;;;;;16.80;3.47;;;6.80;99.90;;;;;;4994004;28;20673;-79
2022/01/30 06:13:37;;;;;;;17.97;2.93;;;6.90;99.90;;;;;;5008963;28;20238;-80
2022/01/30 06:16:03;;;;;;;14.70;2.90;;;7.00;99.90;;;;;;5002805;28;20196;-79
2022/01/30 06:18:29;;;;;;;19.43;2.80;;;7.00;99.90;;;;;;5002020;28;20186;-79
2022/01/30 06:20:55;;;;;;;15.20;2.63;;;7.10;99.90;;;;;;5005752;28;20179;-79
2022/01/30 06:23:25;;;;;;;21.97;3.20;;;7.20;99.90;;;;;;5008381;28;20196;-80
2022/01/30 06:25:52;;;;;;;21.07;3.03;;;7.20;99.90;;;;;;4990693;28;20650;-78
2022/01/30 06:28:18;;;;;;;19.43;2.97;;;7.20;99.90;;;;;;5005726;28;20211;-78
2022/01/30 06:30:44;;;;;;;20.30;3.10;;;7.10;99.90;;;;;;5004830;28;20680;-79
2022/01/30 06:33:09;;;;;;;20.30;3.67;;;7.10;99.90;;;;;;5005373;28;20183;-79
2022/01/30 06:35:35;;;;;;;14.57;3.43;;;7.00;99.90;;;;;;4989144;28;20293;-79
2022/01/30 06:38:04;;;;;;;24.07;3.20;;;7.00;99.90;;;;;;5008470;28;20231;-78
2022/01/30 06:40:31;;;;;;;18.33;3.13;;;6.90;99.90;;;;;;5009602;28;20605;-79
2022/01/30 06:42:57;;;;;;;19.73;3.60;;;6.90;99.90;;;;;;4986389;28;20283;-79
2022/01/30 06:45:23;;;;;;;20.80;4.10;;;6.80;99.90;;;;;;5008957;28;20661;-79
2022/01/30 06:47:50;;;;;;;23.00;3.37;;;6.80;99.90;;;;;;5006506;28;20604;-79
2022/01/30 06:50:15;;;;;;;17.33;3.13;;;6.80;99.90;;;;;;4991226;28;20243;-79
2022/01/30 06:52:41;;;;;;;19.90;2.70;;;6.80;99.90;;;;;;5006396;28;20635;-80
2022/01/30 06:55:08;;;;;;;23.13;3.73;;;6.70;99.90;;;;;;5008045;28;20186;-78
2022/01/30 06:57:33;;;;;;;25.10;3.90;;;6.70;99.90;;;;;;5009105;28;20283;-80
2022/01/30 06:59:59;;;;;;;18.70;2.80;;;6.70;99.90;;;;;;4990432;28;20195;-79
2022/01/30 07:02:25;;;;;;;17.77;3.10;;;6.70;99.90;;;;;;5005052;28;20183;-79
2022/01/30 07:04:51;;;;;;;21.23;3.70;;;6.80;99.90;;;;;;4989440;28;20870;-80
2022/01/30 07:07:17;;;;;;;33.53;5.27;;;6.80;99.90;;;;;;5006493;28;20375;-79
2022/01/30 07:09:43;;;;;;;20.67;3.23;;;6.90;99.90;;;;;;5008600;28;20215;-79
2022/01/30 07:12:09;;;;;;;16.73;3.17;;;6.80;99.90;;;;;;5006690;28;20196;-80
2022/01/30 07:14:35;;;;;;;17.63;3.83;;;6.90;99.90;;;;;;5007711;28;20187;-79
2022/01/30 07:17:00;;;;;;;24.87;3.67;;;6.90;99.90;;;;;;5000166;28;20187;-80
2022/01/30 07:19:26;;;;;;;19.93;4.03;;;6.90;99.90;;;;;;5008898;28;20934;-79
2022/01/30 07:21:52;;;;;;;21.87;3.40;;;6.90;99.90;;;;;;5008484;28;20903;-80
2022/01/30 07:24:18;;;;;;;20.13;3.57;;;6.90;99.90;;;;;;5003557;28;20859;-80
2022/01/30 07:26:44;;;;;;;19.00;3.03;;;6.80;99.90;;;;;;5008304;28;20219;-80
2022/01/30 07:29:10;;;;;;;25.90;4.27;;;6.80;99.90;;;;;;5007244;28;20199;-80
2022/01/30 07:31:36;;;;;;;22.53;3.23;;;6.80;99.90;;;;;;5004207;28;20207;-79
2022/01/30 07:34:02;;;;;;;27.73;3.23;;;6.80;99.90;;;;;;5004136;28;20896;-80
2022/01/30 07:36:30;;;;;;;24.03;4.20;;;6.80;99.90;;;;;;4968155;28;20202;-80
2022/01/30 07:38:56;;;;;;;26.60;3.83;;;6.70;99.90;;;;;;5007698;28;20223;-79
2022/01/30 07:41:22;;;;;;;24.53;4.10;;;6.70;99.90;;;;;;4989921;28;20223;-79
2022/01/30 07:43:48;;;;;;;20.50;3.67;;;6.70;99.90;;;;;;5005384;28;20237;-80
2022/01/30 07:46:15;;;;;;;31.73;3.77;;;6.70;99.90;;;;;;5005477;28;20202;-79
2022/01/30 07:48:40;;;;;;;19.70;3.50;;;6.70;99.90;;;;;;5005300;28;20218;-80
2022/01/30 07:51:06;;;;;;;32.70;4.10;;;6.70;99.90;;;;;;4987895;28;20180;-80
2022/01/30 07:53:32;;;;;;;27.30;5.33;;;6.70;99.90;;;;;;4989552;28;20246;-79
2022/01/30 07:55:58;;;;;;;27.93;3.77;;;6.70;99.90;;;;;;5004538;28;20231;-79
2022/01/30 07:58:24;;;;;;;21.37;4.37;;;6.70;99.90;;;;;;5007384;28;20680;-78
2022/01/30 08:00:50;;;;;;;21.07;3.90;;;6.80;99.90;;;;;;4969405;28;20188;-79
2022/01/30 08:03:15;;;;;;;21.13;3.43;;;6.80;99.90;;;;;;5005673;28;20607;-80
2022/01/30 08:05:41;;;;;;;22.80;4.80;;;6.80;99.90;;;;;;4989419;28;20195;-80
2022/01/30 08:08:07;;;;;;;32.70;4.13;;;7.00;99.90;;;;;;4990817;28;20191;-79
2022/01/30 08:10:34;;;;;;;21.53;3.87;;;7.00;99.90;;;;;;5007673;28;20203;-80
2022/01/30 08:13:00;;;;;;;32.13;3.93;;;7.00;99.90;;;;;;5005706;28;20180;-80
2022/01/30 08:15:26;;;;;;;21.43;4.33;;;7.10;99.90;;;;;;4992157;28;20180;-79
2022/01/30 08:17:51;;;;;;;23.57;3.70;;;7.20;99.90;;;;;;4989753;28;20188;-79
2022/01/30 08:20:18;;;;;;;33.03;4.97;;;7.30;99.90;;;;;;5009802;28;20222;-80
2022/01/30 08:22:52;;;;;;;30.53;4.43;;;7.60;99.90;;;;;;5009520;28;20198;-80
2022/01/30 08:25:24;;;;;;;20.67;3.20;;;8.30;99.90;;;;;;5010758;28;20600;-80
2022/01/30 08:27:50;;;;;;;26.00;4.37;;;9.00;99.90;;;;;;5026210;28;20222;-80
2022/01/30 08:30:16;;;;;;;25.30;4.20;;;9.40;99.90;;;;;;4994509;28;20269;-79
2022/01/30 08:32:44;;;;;;;25.60;4.67;;;9.80;99.90;;;;;;5010477;28;20655;-80
2022/01/30 08:35:12;;;;;;;26.43;4.37;;;10.00;99.90;;;;;;4992659;28;20294;-79
2022/01/30 08:37:38;;;;;;;29.47;4.77;;;10.20;99.90;;;;;;5010081;28;20195;-80
2022/01/30 08:40:05;;;;;;;17.73;4.00;;;10.00;99.90;;;;;;4993165;28;20191;-80
2022/01/30 08:42:31;;;;;;;26.50;4.30;;;9.60;99.90;;;;;;4993850;28;20582;-80
2022/01/30 08:44:57;;;;;;;19.97;3.73;;;9.20;99.90;;;;;;5000537;28;20191;-78
2022/01/30 08:47:23;;;;;;;24.57;3.63;;;9.00;99.90;;;;;;5009404;28;20645;-79
2022/01/30 08:49:48;;;;;;;14.80;4.17;;;9.40;99.90;;;;;;4989802;28;20545;-79
2022/01/30 08:52:16;;;;;;;25.00;4.23;;;9.70;99.90;;;;;;4992480;28;20210;-80
2022/01/30 08:54:42;;;;;;;27.20;3.73;;;10.10;99.90;;;;;;4994436;28;20254;-80
2022/01/30 08:57:08;;;;;;;28.97;5.00;;;10.30;99.90;;;;;;4992031;28;20369;-80
2022/01/30 08:59:34;;;;;;;25.37;3.97;;;10.50;99.90;;;;;;5000910;28;20299;-80
2022/01/30 09:01:59;;;;;;;21.60;4.00;;;11.10;99.90;;;;;;5007719;28;20197;-79
2022/01/30 09:04:25;;;;;;;23.50;3.70;;;11.60;99.90;;;;;;5007756;28;20215;-79
2022/01/30 09:06:51;;;;;;;23.57;3.60;;;11.30;99.90;;;;;;5008967;28;20212;-79
2022/01/30 09:09:16;;;;;;;29.47;4.00;;;10.80;99.90;;;;;;5008948;28;20211;-80
2022/01/30 09:11:42;;;;;;;27.60;4.10;;;10.30;99.90;;;;;;5008673;28;20603;-80
2022/01/30 09:14:08;;;;;;;22.73;3.83;;;9.90;99.90;;;;;;5008935;28;20666;-79
2022/01/30 09:16:34;;;;;;;26.43;4.57;;;9.60;99.90;;;;;;4993367;28;20681;-80
2022/01/30 09:18:59;;;;;;;26.43;4.20;;;9.40;99.90;;;;;;4976992;28;20484;-81
2022/01/30 09:21:25;;;;;;;26.70;4.20;;;9.20;99.90;;;;;;4990346;28;20195;-80
2022/01/30 09:23:52;;;;;;;27.10;4.57;;;9.00;99.90;;;;;;4994024;28;20593;-80
2022/01/30 09:26:19;;;;;;;29.53;4.70;;;9.00;99.90;;;;;;5010603;28;20283;-80
2022/01/30 09:28:45;;;;;;;18.00;3.80;;;9.10;99.90;;;;;;5009796;28;20223;-80
2022/01/30 09:31:11;;;;;;;28.87;4.30;;;9.30;99.90;;;;;;5010875;28;20214;-79
2022/01/30 09:33:36;;;;;;;26.60;3.77;;;9.50;99.90;;;;;;5008624;28;20199;-80
2022/01/30 09:36:03;;;;;;;27.87;4.37;;;9.50;99.90;;;;;;5011120;28;20187;-80
2022/01/30 09:38:29;;;;;;;17.20;3.30;;;9.30;99.90;;;;;;5012534;28;20191;-80
2022/01/30 09:40:56;;;;;;;24.60;4.53;;;9.10;99.90;;;;;;5011387;28;20274;-78
2022/01/30 09:43:22;;;;;;;23.93;3.83;;;9.00;99.90;;;;;;5008747;28;20267;-79
2022/01/30 09:45:49;;;;;;;19.47;3.50;;;8.90;99.90;;;;;;5008428;28;20184;-79
2022/01/30 09:48:17;;;;;;;24.50;4.30;;;8.80;99.90;;;;;;5019426;28;21096;-80
2022/01/30 09:50:43;;;;;;;23.47;4.23;;;8.80;99.90;;;;;;5007913;28;20317;-80
2022/01/30 09:53:09;;;;;;;24.13;4.33;;;8.80;99.90;;;;;;4990681;28;20284;-80
2022/01/30 09:55:35;;;;;;;22.07;3.23;;;8.90;99.90;;;;;;4991754;28;20231;-79
2022/01/30 09:58:00;;;;;;;29.17;3.83;;;8.90;99.90;;;;;;5007647;28;20218;-79
2022/01/30 10:00:26;;;;;;;19.03;3.73;;;8.90;99.90;;;;;;4991135;28;20322;-82
2022/01/30 10:02:52;;;;;;;22.23;3.30;;;8.90;99.90;;;;;;5008261;28;20210;-79
2022/01/30 10:05:18;;;;;;;24.23;3.20;;;8.90;99.90;;;;;;4999697;28;20321;-80
2022/01/30 10:07:49;;;;;;;18.10;3.67;;;8.90;99.90;;;;;;5008605;28;20192;-80
2022/01/30 10:10:19;;;;;;;24.17;4.20;;;9.00;99.90;;;;;;5009926;28;21101;-79
2022/01/30 10:13:12;;;;;;;17.30;3.17;;;9.10;99.90;;;;;;5009553;28;20211;-81
2022/01/30 10:15:51;;;;;;;20.03;3.33;;;9.50;99.90;;;;;;5002080;28;20187;-78
2022/01/30 10:18:18;;;;;;;21.57;3.53;;;11.30;99.90;;;;;;5009979;28;20195;-81
2022/01/30 10:20:45;;;;;;;24.37;4.20;;;12.90;99.90;;;;;;5006705;28;20691;-79
2022/01/30 10:23:11;;;;;;;17.50;3.47;;;13.30;99.90;;;;;;5008656;28;20199;-80
2022/01/30 10:25:46;;;;;;;22.30;3.80;;;12.70;99.90;;;;;;5007044;28;20308;-80
2022/01/30 10:28:16;;;;;;;23.63;3.83;;;11.90;99.90;;;;;;5007399;28;20686;-79
2022/01/30 10:30:57;;;;;;;27.07;4.53;;;11.40;99.90;;;;;;5008078;28;20761;-80
2022/01/30 10:33:45;;;;;;;20.70;3.43;;;11.00;99.90;;;;;;5005398;28;20203;-79
2022/01/30 10:36:12;;;;;;;16.67;3.70;;;10.50;99.90;;;;;;5007006;28;20191;-80
2022/01/30 10:38:52;;;;;;;24.70;3.57;;;10.20;99.90;;;;;;5009910;28;20189;-81
2022/01/30 10:41:30;;;;;;;20.07;3.87;;;10.00;99.90;;;;;;5023791;28;20192;-81
2022/01/30 10:44:07;;;;;;;24.70;4.50;;;9.80;99.90;;;;;;4993415;28;20261;-79
2022/01/30 10:46:43;;;;;;;16.97;3.43;;;9.60;99.90;;;;;;5000777;28;20191;-80
2022/01/30 10:49:11;;;;;;;27.63;4.03;;;9.40;99.90;;;;;;5010042;28;20211;-79
2022/01/30 10:51:37;;;;;;;18.33;4.07;;;9.40;99.90;;;;;;5007756;28;20330;-80
2022/01/30 10:54:07;;;;;;;19.23;3.83;;;9.40;99.90;;;;;;5008414;28;20200;-80
2022/01/30 10:56:35;;;;;;;28.50;3.20;;;9.40;99.90;;;;;;5006816;28;20227;-81
2022/01/30 10:59:06;;;;;;;27.10;4.33;;;9.40;99.90;;;;;;5007874;28;20234;-80
2022/01/30 11:01:32;;;;;;;15.40;3.07;;;9.50;99.90;;;;;;5007349;28;20199;-80
2022/01/30 11:04:00;;;;;;;26.43;5.07;;;9.70;99.90;;;;;;5008786;28;20599;-80
2022/01/30 11:06:28;;;;;;;20.57;3.40;;;9.90;99.90;;;;;;5006804;28;20274;-80
2022/01/30 11:09:04;;;;;;;24.00;4.00;;;10.00;99.90;;;;;;5005713;28;20211;-80
2022/01/30 11:11:35;;;;;;;20.80;3.50;;;10.10;99.90;;;;;;5005580;28;20289;-81
2022/01/30 11:19:20;;;;;;;24.70;4.87;;;9.80;99.90;;;;;;5008739;28;20306;-80
2022/01/30 11:21:51;;;;;;;24.30;4.03;;;9.70;99.90;;;;;;4985503;28;20757;-80
2022/01/30 11:24:19;;;;;;;17.67;3.00;;;9.50;99.90;;;;;;5006975;28;20284;-79
2022/01/30 11:26:46;;;;;;;16.43;3.80;;;9.50;99.90;;;;;;5003902;28;20188;-81
2022/01/30 11:29:14;;;;;;;26.13;4.33;;;9.60;99.90;;;;;;4999356;28;20219;-80
2022/01/30 11:31:40;;;;;;;17.47;3.60;;;9.50;99.90;;;;;;4981300;28;20196;-80
2022/01/30 11:34:05;;;;;;;13.70;3.23;;;9.60;99.90;;;;;;5005163;28;20676;-79
2022/01/30 11:36:33;;;;;;;22.33;3.10;;;9.70;99.90;;;;;;5006889;28;20267;-80
2022/01/30 11:39:04;;;;;;;21.03;3.80;;;9.90;99.90;;;;;;5005437;28;20188;-81
2022/01/30 11:41:31;;;;;;;32.63;4.53;;;10.00;99.90;;;;;;5006244;28;20211;-80
2022/01/30 11:44:15;;;;;;;19.83;3.70;;;10.00;99.90;;;;;;5004381;28;20637;-79
2022/01/30 11:46:41;;;;;;;21.53;4.33;;;10.10;99.90;;;;;;5002170;28;20250;-80
2022/01/30 11:49:14;;;;;;;24.33;4.50;;;10.20;99.90;;;;;;5005296;28;20938;-81
2022/01/30 11:51:55;;;;;;;12.57;2.80;;;10.20;99.90;;;;;;5009779;28;20682;-81
2022/01/30 11:54:49;;;;;;;15.80;2.60;;;10.10;99.90;;;;;;5006761;28;20190;-80
2022/01/30 11:57:18;;;;;;;16.47;3.03;;;9.90;99.90;;;;;;5003161;28;20322;-80
2022/01/30 11:59:45;;;;;;;21.10;3.57;;;9.80;99.90;;;;;;4995933;28;20199;-80
2022/01/30 12:02:30;;;;;;;23.17;3.43;;;9.90;99.90;;;;;;4990199;28;20202;-79
2022/01/30 12:05:09;;;;;;;27.53;3.97;;;9.90;99.90;;;;;;5022453;28;20230;-79
2022/01/30 12:07:37;;;;;;;26.83;5.23;;;9.90;99.90;;;;;;5004507;28;20191;-79
2022/01/30 12:10:27;;;;;;;23.47;3.23;;;9.80;99.90;;;;;;4990220;28;20281;-81
2022/01/30 12:13:04;;;;;;;21.73;4.33;;;9.60;99.90;;;;;;5007315;28;20221;-79
2022/01/30 12:15:44;;;;;;;27.93;3.80;;;9.50;99.90;;;;;;4999525;28;20194;-80
2022/01/30 12:18:09;;;;;;;20.20;3.50;;;9.40;99.90;;;;;;5006696;28;20175;-80
2022/01/30 12:20:54;;;;;;;25.40;3.97;;;9.30;99.90;;;;;;5007270;28;20502;-79
2022/01/30 12:23:30;;;;;;;26.00;3.87;;;9.20;99.90;;;;;;5007302;28;20192;-81
2022/01/30 12:26:05;;;;;;;22.00;3.90;;;9.10;99.90;;;;;;5004997;28;20187;-79
2022/01/30 12:28:54;;;;;;;17.23;3.63;;;9.00;99.90;;;;;;5007971;28;20199;-79
2022/01/30 12:31:38;;;;;;;27.93;3.93;;;9.00;99.90;;;;;;5006999;28;20195;-80
2022/01/30 12:34:14;;;;;;;23.10;3.80;;;9.10;99.90;;;;;;4989928;28;20191;-80
2022/01/30 12:36:43;;;;;;;28.93;3.27;;;9.30;99.90;;;;;;5014572;28;20183;-81
2022/01/30 12:39:21;;;;;;;29.17;3.97;;;9.60;99.90;;;;;;4967192;28;20188;-79
2022/01/30 12:41:48;;;;;;;16.17;3.27;;;9.80;99.90;;;;;;4999383;28;20693;-80
2022/01/30 12:44:15;;;;;;;23.37;3.63;;;9.80;99.90;;;;;;5006263;28;20192;-81
2022/01/30 12:46:47;;;;;;;17.83;3.43;;;9.70;99.90;;;;;;5007548;28;20188;-80
2022/01/30 12:49:16;;;;;;;20.03;3.90;;;9.60;99.90;;;;;;4980261;28;21035;-81
2022/01/30 12:51:49;;;;;;;25.57;3.80;;;9.50;99.90;;;;;;5006407;28;20291;-80
2022/01/30 12:54:21;;;;;;;23.30;3.10;;;9.50;99.90;;;;;;5000298;28;20199;-81
2022/01/30 12:56:49;;;;;;;27.20;4.20;;;9.50;99.90;;;;;;5005818;28;20265;-81
2022/01/30 12:59:17;;;;;;;23.73;3.83;;;9.50;99.90;;;;;;5008721;28;20613;-81
2022/01/30 13:01:46;;;;;;;26.17;3.93;;;9.50;99.90;;;;;;5007705;28;20747;-78
2022/01/30 13:04:17;;;;;;;28.97;4.00;;;9.50;99.90;;;;;;5009508;28;20291;-79
2022/01/30 13:06:49;;;;;;;20.47;3.83;;;9.40;99.90;;;;;;5012441;28;20302;-80
2022/01/30 13:09:25;;;;;;;28.60;4.83;;;9.30;99.90;;;;;;5007829;28;20677;-80
2022/01/30 13:12:15;;;;;;;30.10;4.57;;;9.30;99.90;;;;;;5009074;28;20183;-80
2022/01/30 13:14:42;;;;;;;22.63;3.80;;;9.30;99.90;;;;;;5008591;28;20195;-79
2022/01/30 13:17:13;;;;;;;23.57;3.83;;;9.40;99.90;;;;;;5003439;28;20196;-80
2022/01/30 13:19:42;;;;;;;28.17;3.90;;;9.50;99.90;;;;;;5008601;28;20195;-80
2022/01/30 13:22:11;;;;;;;30.50;4.33;;;9.60;99.90;;;;;;5010082;28;20191;-81
2022/01/30 13:24:38;;;;;;;30.93;4.73;;;9.60;99.90;;;;;;5009658;28;20620;-80
2022/01/30 13:27:08;;;;;;;31.67;4.17;;;9.70;99.90;;;;;;4984037;28;20207;-79
2022/01/30 13:29:35;;;;;;;26.37;3.93;;;9.60;99.90;;;;;;5009857;28;20250;-81
2022/01/30 13:32:09;;;;;;;19.27;3.83;;;9.60;99.90;;;;;;5007975;28;20233;-80
2022/01/30 13:34:36;;;;;;;17.07;3.30;;;9.40;99.90;;;;;;5008050;28;20198;-80
2022/01/30 13:37:15;;;;;;;25.83;3.60;;;9.40;99.90;;;;;;5008610;28;20203;-80
2022/01/30 13:40:03;;;;;;;21.90;4.00;;;9.30;99.90;;;;;;5010085;28;20573;-80
2022/01/30 13:48:09;;;;;;;26.87;3.87;;;9.30;99.90;;;;;;5010307;28;20685;-79
2022/01/30 13:50:39;;;;;;;30.73;4.37;;;9.40;99.90;;;;;;5010300;28;20219;-80
2022/01/30 13:53:12;;;;;;;23.43;3.17;;;9.30;99.90;;;;;;5009322;28;20210;-80